^^
Station Historical Data
Daily Summary for November 2, 2017 Units:  Both    English   Metric
« Previous Day
Next Day »
Daily Weekly Monthly Yearly Custom
  High: Low: Average:
Temperature: TemperatureF °F /  -17.8 °C 59.5 °F /  15.3 °C 67.1 °F /  19.5 °C
Dew Point: DewpointF °F /  -17.8 °C 47.3 °F /  8.5 °C 52.7 °F /  11.5 °C
Humidity: Humidity% 36% 63%
Wind Speed: WindSpeedMPHmph /  0km/h - 1.7mph /  2.7km/h
Wind Gust: WindSpeedGustMPHmph /  0km/h - -
Wind- - SSW
Pressure: PressureIn in /  0 hPa 29.78 in /  1008.4 hPa -
Precipitation: 0.04 in /  1.02 mm    
Historical Graphs
 
 
Tabular Data for November 2, 2017
Time Temperature Dew Point Pressure Wind Wind Speed Wind Gust Humidity Rainfall Rate (Hourly) solar Conditions
TemperatureF °F /  -17.8 °C DewpointF °F /  -17.8 °C PressureInin /  0hPa Calm     Humidity% HourlyPrecipInin /  0mm SolarRadiationWatts/m^2 W/m2 Conditions
00:03 61.9 °F /  16.6 °C 55.9 °F /  13.3 °C 29.91in /  1012.8hPa Calm     81% 0.00in /  0mm 0.0 W/m2
00:08 61.7 °F /  16.5 °C 55.8 °F /  13.2 °C 29.91in /  1012.8hPa Calm     81% 0.00in /  0mm 0.0 W/m2
00:13 61.7 °F /  16.5 °C 56.1 °F /  13.4 °C 29.91in /  1012.8hPa Calm     82% 0.00in /  0mm 0.0 W/m2
00:18 61.5 °F /  16.4 °C 55.9 °F /  13.3 °C 29.91in /  1012.8hPa Calm   1.0mph /  1.6km/h 82% 0.00in /  0mm 0.0 W/m2
00:23 61.5 °F /  16.4 °C 55.9 °F /  13.3 °C 29.91in /  1012.8hPa Calm   2.0mph /  3.2km/h 82% 0.00in /  0mm 0.0 W/m2
00:28 61.5 °F /  16.4 °C 55.6 °F /  13.1 °C 29.91in /  1012.8hPa Calm   1.0mph /  1.6km/h 81% 0.00in /  0mm 0.0 W/m2
00:33 61.5 °F /  16.4 °C 55.9 °F /  13.3 °C 29.90in /  1012.4hPa Calm   1.0mph /  1.6km/h 82% 0.00in /  0mm 0.0 W/m2
00:38 61.5 °F /  16.4 °C 55.9 °F /  13.3 °C 29.90in /  1012.4hPa Calm     82% 0.00in /  0mm 0.0 W/m2
00:43 61.5 °F /  16.4 °C 55.9 °F /  13.3 °C 29.90in /  1012.4hPa East 0.9mph /  1.4km/h 1.0mph /  1.6km/h 82% 0.00in /  0mm 0.0 W/m2
00:49 61.5 °F /  16.4 °C 55.9 °F /  13.3 °C 29.90in /  1012.4hPa Calm   1.0mph /  1.6km/h 82% 0.00in /  0mm 0.0 W/m2
00:54 61.3 °F /  16.3 °C 55.8 °F /  13.2 °C 29.89in /  1012.1hPa Calm     82% 0.00in /  0mm 0.0 W/m2
00:59 61.3 °F /  16.3 °C 55.8 °F /  13.2 °C 29.89in /  1012.1hPa Calm   1.0mph /  1.6km/h 82% 0.00in /  0mm 0.0 W/m2
01:04 61.3 °F /  16.3 °C 55.8 °F /  13.2 °C 29.89in /  1012.1hPa NE 0.9mph /  1.4km/h 1.0mph /  1.6km/h 82% 0.00in /  0mm 0.0 W/m2
01:09 61.2 °F /  16.2 °C 55.6 °F /  13.1 °C 29.89in /  1012.1hPa Calm   1.0mph /  1.6km/h 82% 0.00in /  0mm 0.0 W/m2
01:14 61.2 °F /  16.2 °C 55.6 °F /  13.1 °C 29.89in /  1012.1hPa East 0.9mph /  1.4km/h 3.0mph /  4.8km/h 82% 0.00in /  0mm 0.0 W/m2
01:19 61.2 °F /  16.2 °C 55.6 °F /  13.1 °C 29.89in /  1012.1hPa Calm   2.0mph /  3.2km/h 82% 0.00in /  0mm 0.0 W/m2
01:24 61.2 °F /  16.2 °C 55.6 °F /  13.1 °C 29.89in /  1012.1hPa NE 0.9mph /  1.4km/h 3.0mph /  4.8km/h 82% 0.00in /  0mm 0.0 W/m2
01:29 61.2 °F /  16.2 °C 55.6 °F /  13.1 °C 29.88in /  1011.7hPa Calm   1.0mph /  1.6km/h 82% 0.00in /  0mm 0.0 W/m2
01:35 61.2 °F /  16.2 °C 55.2 °F /  12.9 °C 29.88in /  1011.7hPa Calm     81% 0.00in /  0mm 0.0 W/m2
01:40 61.2 °F /  16.2 °C 55.2 °F /  12.9 °C 29.88in /  1011.7hPa Calm     81% 0.00in /  0mm 0.0 W/m2
01:45 61.2 °F /  16.2 °C 55.2 °F /  12.9 °C 29.88in /  1011.7hPa Calm     81% 0.00in /  0mm 0.0 W/m2
01:50 61.2 °F /  16.2 °C 55.2 °F /  12.9 °C 29.89in /  1012.1hPa Calm     81% 0.00in /  0mm 0.0 W/m2
01:55 61.0 °F /  16.1 °C 55.4 °F /  13 °C 29.88in /  1011.7hPa Calm     82% 0.00in /  0mm 0.0 W/m2
02:00 61.0 °F /  16.1 °C 55.4 °F /  13 °C 29.88in /  1011.7hPa Calm     82% 0.00in /  0mm 0.0 W/m2
02:05 61.0 °F /  16.1 °C 55.4 °F /  13 °C 29.89in /  1012.1hPa Calm     82% 0.00in /  0mm 0.0 W/m2
02:10 60.8 °F /  16 °C 55.6 °F /  13.1 °C 29.88in /  1011.7hPa Calm   2.0mph /  3.2km/h 83% 0.00in /  0mm 0.0 W/m2
02:15 60.6 °F /  15.9 °C 55.4 °F /  13 °C 29.88in /  1011.7hPa Calm   2.0mph /  3.2km/h 83% 0.00in /  0mm 0.0 W/m2
02:21 60.6 °F /  15.9 °C 55.4 °F /  13 °C 29.88in /  1011.7hPa Calm     83% 0.00in /  0mm 0.0 W/m2
02:26 60.6 °F /  15.9 °C 55.4 °F /  13 °C 29.88in /  1011.7hPa Calm     83% 0.00in /  0mm 0.0 W/m2
02:31 60.6 °F /  15.9 °C 55.0 °F /  12.8 °C 29.87in /  1011.4hPa Calm   1.0mph /  1.6km/h 82% 0.00in /  0mm 0.0 W/m2
02:36 60.6 °F /  15.9 °C 55.0 °F /  12.8 °C 29.87in /  1011.4hPa Calm   1.0mph /  1.6km/h 82% 0.00in /  0mm 0.0 W/m2
02:41 60.6 °F /  15.9 °C 55.0 °F /  12.8 °C 29.87in /  1011.4hPa Calm   1.0mph /  1.6km/h 82% 0.00in /  0mm 0.0 W/m2
02:46 60.6 °F /  15.9 °C 55.0 °F /  12.8 °C 29.87in /  1011.4hPa Calm     82% 0.00in /  0mm 0.0 W/m2
02:51 60.6 °F /  15.9 °C 55.0 °F /  12.8 °C 29.87in /  1011.4hPa Calm     82% 0.00in /  0mm 0.0 W/m2
02:56 60.6 °F /  15.9 °C 54.5 °F /  12.5 °C 29.86in /  1011.1hPa Calm   1.0mph /  1.6km/h 80% 0.00in /  0mm 0.0 W/m2
03:01 60.8 °F /  16 °C 54.7 °F /  12.6 °C 29.86in /  1011.1hPa Calm     80% 0.00in /  0mm 0.0 W/m2
03:07 61.0 °F /  16.1 °C 54.5 °F /  12.5 °C 29.86in /  1011.1hPa Calm     79% 0.00in /  0mm 0.0 W/m2
03:12 61.0 °F /  16.1 °C 54.5 °F /  12.5 °C 29.86in /  1011.1hPa Calm   3.0mph /  4.8km/h 79% 0.00in /  0mm 0.0 W/m2
03:17 61.2 °F /  16.2 °C 54.7 °F /  12.6 °C 29.86in /  1011.1hPa East 2.9mph /  4.7km/h 3.0mph /  4.8km/h 79% 0.00in /  0mm 0.0 W/m2
03:22 61.2 °F /  16.2 °C 54.3 °F /  12.4 °C 29.86in /  1011.1hPa Calm   1.0mph /  1.6km/h 78% 0.00in /  0mm 0.0 W/m2
03:27 61.3 °F /  16.3 °C 54.5 °F /  12.5 °C 29.86in /  1011.1hPa East 0.9mph /  1.4km/h 4.0mph /  6.4km/h 78% 0.00in /  0mm 0.0 W/m2
03:32 61.3 °F /  16.3 °C 54.5 °F /  12.5 °C 29.86in /  1011.1hPa Calm     78% 0.00in /  0mm 0.0 W/m2
03:37 61.5 °F /  16.4 °C 54.3 °F /  12.4 °C 29.86in /  1011.1hPa Calm     77% 0.00in /  0mm 0.0 W/m2
03:42 61.7 °F /  16.5 °C 54.5 °F /  12.5 °C 29.86in /  1011.1hPa Calm     77% 0.00in /  0mm 0.0 W/m2
03:47 61.9 °F /  16.6 °C 54.3 °F /  12.4 °C 29.86in /  1011.1hPa East 0.9mph /  1.4km/h 2.0mph /  3.2km/h 76% 0.00in /  0mm 0.0 W/m2
03:53 62.1 °F /  16.7 °C 54.7 °F /  12.6 °C 29.85in /  1010.7hPa Calm   1.0mph /  1.6km/h 77% 0.00in /  0mm 0.0 W/m2
03:58 62.1 °F /  16.7 °C 54.7 °F /  12.6 °C 29.85in /  1010.7hPa Calm   1.0mph /  1.6km/h 77% 0.00in /  0mm 0.0 W/m2
04:03 62.1 °F /  16.7 °C 54.7 °F /  12.6 °C 29.85in /  1010.7hPa Calm     77% 0.00in /  0mm 0.0 W/m2
04:08 62.1 °F /  16.7 °C 54.3 °F /  12.4 °C 29.85in /  1010.7hPa Calm   1.0mph /  1.6km/h 76% 0.00in /  0mm 0.0 W/m2
04:13 62.1 °F /  16.7 °C 54.3 °F /  12.4 °C 29.85in /  1010.7hPa Calm     76% 0.00in /  0mm 0.0 W/m2
04:18 62.1 °F /  16.7 °C 54.3 °F /  12.4 °C 29.85in /  1010.7hPa East 0.9mph /  1.4km/h 1.0mph /  1.6km/h 76% 0.00in /  0mm 0.0 W/m2
04:23 62.1 °F /  16.7 °C 54.3 °F /  12.4 °C 29.85in /  1010.7hPa Calm   1.0mph /  1.6km/h 76% 0.00in /  0mm 0.0 W/m2
04:28 62.1 °F /  16.7 °C 54.0 °F /  12.2 °C 29.85in /  1010.7hPa Calm   2.0mph /  3.2km/h 75% 0.00in /  0mm 0.0 W/m2
04:33 62.1 °F /  16.7 °C 54.0 °F /  12.2 °C 29.84in /  1010.4hPa Calm   2.0mph /  3.2km/h 75% 0.00in /  0mm 0.0 W/m2
04:38 62.1 °F /  16.7 °C 53.6 °F /  12 °C 29.85in /  1010.7hPa Calm   1.0mph /  1.6km/h 74% 0.00in /  0mm 0.0 W/m2
04:44 62.2 °F /  16.8 °C 53.8 °F /  12.1 °C 29.85in /  1010.7hPa Calm     74% 0.00in /  0mm 0.0 W/m2
04:49 62.2 °F /  16.8 °C 53.8 °F /  12.1 °C 29.85in /  1010.7hPa Calm     74% 0.00in /  0mm 0.0 W/m2
04:54 62.2 °F /  16.8 °C 53.8 °F /  12.1 °C 29.84in /  1010.4hPa Calm   1.0mph /  1.6km/h 74% 0.00in /  0mm 0.0 W/m2
04:59 62.2 °F /  16.8 °C 53.8 °F /  12.1 °C 29.85in /  1010.7hPa Calm   2.0mph /  3.2km/h 74% 0.00in /  0mm 0.0 W/m2
05:04 62.4 °F /  16.9 °C 54.0 °F /  12.2 °C 29.85in /  1010.7hPa ENE 2.0mph /  3.2km/h 2.0mph /  3.2km/h 74% 0.00in /  0mm 0.0 W/m2
05:09 62.4 °F /  16.9 °C 54.0 °F /  12.2 °C 29.85in /  1010.7hPa East 0.9mph /  1.4km/h 1.0mph /  1.6km/h 74% 0.00in /  0mm 0.0 W/m2
05:14 62.4 °F /  16.9 °C 54.0 °F /  12.2 °C 29.85in /  1010.7hPa Calm   2.0mph /  3.2km/h 74% 0.00in /  0mm 0.0 W/m2
05:23 62.6 °F /  17 °C 54.1 °F /  12.3 °C 29.85in /  1010.7hPa Calm   2.0mph /  3.2km/h 74% 0.00in /  0mm 0.0 W/m2
05:28 62.6 °F /  17 °C 54.1 °F /  12.3 °C 29.85in /  1010.7hPa Calm   1.0mph /  1.6km/h 74% 0.00in /  0mm 0.0 W/m2
05:34 62.6 °F /  17 °C 53.8 °F /  12.1 °C 29.85in /  1010.7hPa Calm   2.0mph /  3.2km/h 73% 0.00in /  0mm 0.0 W/m2
05:39 62.8 °F /  17.1 °C 53.6 °F /  12 °C 29.85in /  1010.7hPa Calm   3.0mph /  4.8km/h 72% 0.00in /  0mm 0.0 W/m2
05:44 62.8 °F /  17.1 °C 53.6 °F /  12 °C 29.85in /  1010.7hPa East 0.9mph /  1.4km/h 4.0mph /  6.4km/h 72% 0.00in /  0mm 0.0 W/m2
05:49 62.8 °F /  17.1 °C 53.2 °F /  11.8 °C 29.86in /  1011.1hPa ENE 0.9mph /  1.4km/h 1.0mph /  1.6km/h 71% 0.00in /  0mm 0.0 W/m2
05:54 63.0 °F /  17.2 °C 52.7 °F /  11.5 °C 29.86in /  1011.1hPa Calm   4.0mph /  6.4km/h 69% 0.00in /  0mm 0.0 W/m2
05:59 63.0 °F /  17.2 °C 52.7 °F /  11.5 °C 29.86in /  1011.1hPa East 0.9mph /  1.4km/h 2.0mph /  3.2km/h 69% 0.00in /  0mm 0.0 W/m2
06:04 63.1 °F /  17.3 °C 52.9 °F /  11.6 °C 29.86in /  1011.1hPa Calm   1.0mph /  1.6km/h 69% 0.00in /  0mm 0.0 W/m2
06:09 63.1 °F /  17.3 °C 52.9 °F /  11.6 °C 29.85in /  1010.7hPa Calm   1.0mph /  1.6km/h 69% 0.00in /  0mm 0.0 W/m2
06:15 63.1 °F /  17.3 °C 53.2 °F /  11.8 °C 29.85in /  1010.7hPa Calm   1.0mph /  1.6km/h 70% 0.00in /  0mm 0.0 W/m2
06:20 63.1 °F /  17.3 °C 52.9 °F /  11.6 °C 29.86in /  1011.1hPa Calm   3.0mph /  4.8km/h 69% 0.00in /  0mm 0.0 W/m2
06:25 63.3 °F /  17.4 °C 53.1 °F /  11.7 °C 29.86in /  1011.1hPa Calm   2.0mph /  3.2km/h 69% 0.00in /  0mm 7.0 W/m2
06:30 63.3 °F /  17.4 °C 52.5 °F /  11.4 °C 29.86in /  1011.1hPa Calm   1.0mph /  1.6km/h 68% 0.00in /  0mm 14.0 W/m2
06:35 63.3 °F /  17.4 °C 52.2 °F /  11.2 °C 29.86in /  1011.1hPa Calm   1.0mph /  1.6km/h 67% 0.00in /  0mm 14.0 W/m2
06:40 63.3 °F /  17.4 °C 52.2 °F /  11.2 °C 29.86in /  1011.1hPa Calm     67% 0.00in /  0mm 14.0 W/m2
06:45 63.5 °F /  17.5 °C 52.7 °F /  11.5 °C 29.86in /  1011.1hPa Calm   1.0mph /  1.6km/h 68% 0.00in /  0mm 12.0 W/m2
06:50 63.5 °F /  17.5 °C 52.7 °F /  11.5 °C 29.86in /  1011.1hPa NE 2.0mph /  3.2km/h 2.0mph /  3.2km/h 68% 0.00in /  0mm 12.0 W/m2
06:56 63.7 °F /  17.6 °C 52.5 °F /  11.4 °C 29.86in /  1011.1hPa Calm     67% 0.00in /  0mm 21.0 W/m2
07:01 63.7 °F /  17.6 °C 52.2 °F /  11.2 °C 29.86in /  1011.1hPa Calm   1.0mph /  1.6km/h 66% 0.00in /  0mm 32.0 W/m2
07:06 63.7 °F /  17.6 °C 51.6 °F /  10.9 °C 29.87in /  1011.4hPa Calm   3.0mph /  4.8km/h 65% 0.00in /  0mm 35.0 W/m2
07:11 63.9 °F /  17.7 °C 51.1 °F /  10.6 °C 29.88in /  1011.7hPa Calm   1.0mph /  1.6km/h 63% 0.00in /  0mm 32.0 W/m2
07:16 64.0 °F /  17.8 °C 51.3 °F /  10.7 °C 29.88in /  1011.7hPa Calm   1.0mph /  1.6km/h 63% 0.00in /  0mm 33.0 W/m2
07:21 64.2 °F /  17.9 °C 50.5 °F /  10.3 °C 29.88in /  1011.7hPa NNE 0.9mph /  1.4km/h 3.0mph /  4.8km/h 61% 0.00in /  0mm 39.0 W/m2
07:26 64.6 °F /  18.1 °C 50.4 °F /  10.2 °C 29.88in /  1011.7hPa ENE 2.0mph /  3.2km/h 2.0mph /  3.2km/h 60% 0.00in /  0mm 53.0 W/m2
07:31 64.8 °F /  18.2 °C 50.5 °F /  10.3 °C 29.88in /  1011.7hPa Calm   3.0mph /  4.8km/h 60% 0.00in /  0mm 46.0 W/m2
07:36 65.1 °F /  18.4 °C 50.4 °F /  10.2 °C 29.89in /  1012.1hPa NE 2.9mph /  4.7km/h 3.0mph /  4.8km/h 59% 0.00in /  0mm 63.0 W/m2
07:41 65.5 °F /  18.6 °C 50.7 °F /  10.4 °C 29.89in /  1012.1hPa NNW 5.0mph /  8km/h 5.0mph /  8km/h 59% 0.00in /  0mm 69.0 W/m2
07:47 65.7 °F /  18.7 °C 49.5 °F /  9.7 °C 29.89in /  1012.1hPa North 2.0mph /  3.2km/h 4.0mph /  6.4km/h 56% 0.00in /  0mm 84.0 W/m2
07:52 65.8 °F /  18.8 °C 50.2 °F /  10.1 °C 29.89in /  1012.1hPa Calm     57% 0.00in /  0mm 95.0 W/m2
07:57 66.0 °F /  18.9 °C 50.4 °F /  10.2 °C 29.90in /  1012.4hPa NE 0.9mph /  1.4km/h 1.0mph /  1.6km/h 57% 0.00in /  0mm 90.0 W/m2
08:02 66.4 °F /  19.1 °C 50.2 °F /  10.1 °C 29.90in /  1012.4hPa North 0.9mph /  1.4km/h 2.0mph /  3.2km/h 56% 0.00in /  0mm 79.0 W/m2
08:07 66.6 °F /  19.2 °C 49.8 °F /  9.9 °C 29.89in /  1012.1hPa NNE 0.9mph /  1.4km/h 3.0mph /  4.8km/h 55% 0.00in /  0mm 88.0 W/m2
08:12 66.7 °F /  19.3 °C 50.0 °F /  10 °C 29.89in /  1012.1hPa Calm     55% 0.00in /  0mm 95.0 W/m2
08:17 66.9 °F /  19.4 °C 49.8 °F /  9.9 °C 29.89in /  1012.1hPa NNE 2.0mph /  3.2km/h 2.0mph /  3.2km/h 54% 0.00in /  0mm 95.0 W/m2
08:22 66.9 °F /  19.4 °C 49.3 °F /  9.6 °C 29.89in /  1012.1hPa Calm   2.0mph /  3.2km/h 53% 0.00in /  0mm 134.0 W/m2
08:27 67.3 °F /  19.6 °C 49.1 °F /  9.5 °C 29.89in /  1012.1hPa North 0.9mph /  1.4km/h 2.0mph /  3.2km/h 52% 0.00in /  0mm 141.0 W/m2
08:32 67.5 °F /  19.7 °C 48.2 °F /  9 °C 29.89in /  1012.1hPa North 0.9mph /  1.4km/h 2.0mph /  3.2km/h 50% 0.00in /  0mm 128.0 W/m2
08:35 67.5 °F /  19.7 °C 49.3 °F /  9.6 °C 29.89in /  1012.1hPa Calm   2.0mph /  3.2km/h 52% 0.00in /  0mm 125.0 W/m2
08:41 67.6 °F /  19.8 °C 49.5 °F /  9.7 °C 29.90in /  1012.4hPa Calm   1.0mph /  1.6km/h 52% 0.00in /  0mm 113.0 W/m2
08:46 67.8 °F /  19.9 °C 49.6 °F /  9.8 °C 29.90in /  1012.4hPa Calm   1.0mph /  1.6km/h 52% 0.00in /  0mm 109.0 W/m2
08:51 68.0 °F /  20 °C 50.7 °F /  10.4 °C 29.90in /  1012.4hPa Calm   1.0mph /  1.6km/h 54% 0.00in /  0mm 98.0 W/m2
08:56 68.2 °F /  20.1 °C 50.9 °F /  10.5 °C 29.90in /  1012.4hPa Calm   1.0mph /  1.6km/h 54% 0.00in /  0mm 72.0 W/m2
09:01 68.2 °F /  20.1 °C 50.9 °F /  10.5 °C 29.91in /  1012.8hPa Calm   1.0mph /  1.6km/h 54% 0.00in /  0mm 65.0 W/m2
09:06 68.0 °F /  20 °C 49.6 °F /  9.8 °C 29.90in /  1012.4hPa Calm     52% 0.00in /  0mm 83.0 W/m2
09:11 68.2 °F /  20.1 °C 50.4 °F /  10.2 °C 29.90in /  1012.4hPa Calm     53% 0.00in /  0mm 120.0 W/m2
09:16 68.2 °F /  20.1 °C 50.4 °F /  10.2 °C 29.90in /  1012.4hPa Calm     53% 0.00in /  0mm 135.0 W/m2
09:21 68.4 °F /  20.2 °C 50.0 °F /  10 °C 29.90in /  1012.4hPa Calm   1.0mph /  1.6km/h 52% 0.00in /  0mm 160.0 W/m2
09:26 68.5 °F /  20.3 °C 50.2 °F /  10.1 °C 29.90in /  1012.4hPa Calm   1.0mph /  1.6km/h 52% 0.00in /  0mm 156.0 W/m2
09:32 68.7 °F /  20.4 °C 49.8 °F /  9.9 °C 29.90in /  1012.4hPa Calm   2.0mph /  3.2km/h 51% 0.00in /  0mm 172.0 W/m2
09:37 68.9 °F /  20.5 °C 49.5 °F /  9.7 °C 29.90in /  1012.4hPa NW 2.0mph /  3.2km/h 3.0mph /  4.8km/h 50% 0.00in /  0mm 185.0 W/m2
09:42 69.1 °F /  20.6 °C 48.6 °F /  9.2 °C 29.90in /  1012.4hPa NE 2.9mph /  4.7km/h 5.0mph /  8km/h 48% 0.00in /  0mm 213.0 W/m2
09:47 69.3 °F /  20.7 °C 49.3 °F /  9.6 °C 29.89in /  1012.1hPa NE 0.9mph /  1.4km/h 3.0mph /  4.8km/h 49% 0.00in /  0mm 237.0 W/m2
09:52 69.6 °F /  20.9 °C 49.1 °F /  9.5 °C 29.89in /  1012.1hPa North 0.9mph /  1.4km/h 1.0mph /  1.6km/h 48% 0.00in /  0mm 218.0 W/m2
09:57 69.8 °F /  21 °C 49.8 °F /  9.9 °C 29.89in /  1012.1hPa Calm   2.0mph /  3.2km/h 49% 0.00in /  0mm 248.0 W/m2
10:02 70.2 °F /  21.2 °C 50.2 °F /  10.1 °C 29.89in /  1012.1hPa North 0.9mph /  1.4km/h 1.0mph /  1.6km/h 49% 0.00in /  0mm 294.0 W/m2
10:07 70.3 °F /  21.3 °C 50.4 °F /  10.2 °C 29.89in /  1012.1hPa NNW 2.9mph /  4.7km/h 3.0mph /  4.8km/h 49% 0.00in /  0mm 439.0 W/m2
10:13 71.1 °F /  21.7 °C 49.8 °F /  9.9 °C 29.89in /  1012.1hPa WNW 0.9mph /  1.4km/h 2.0mph /  3.2km/h 47% 0.00in /  0mm 666.0 W/m2
10:18 72.0 °F /  22.2 °C 49.5 °F /  9.7 °C 29.90in /  1012.4hPa NNW 4.0mph /  6.4km/h 6.0mph /  9.7km/h 45% 0.00in /  0mm 872.0 W/m2
10:23 73.2 °F /  22.9 °C 49.5 °F /  9.7 °C 29.89in /  1012.1hPa NNW 2.0mph /  3.2km/h 4.0mph /  6.4km/h 43% 0.00in /  0mm 921.0 W/m2
10:28 74.5 °F /  23.6 °C 48.6 °F /  9.2 °C 29.89in /  1012.1hPa WNW 0.9mph /  1.4km/h 9.0mph /  14.5km/h 40% 0.00in /  0mm 1060.0 W/m2
10:33 75.6 °F /  24.2 °C 48.9 °F /  9.4 °C 29.89in /  1012.1hPa West 2.0mph /  3.2km/h 7.0mph /  11.3km/h 39% 0.00in /  0mm 1201.0 W/m2
10:38 76.3 °F /  24.6 °C 47.3 °F /  8.5 °C 29.88in /  1011.7hPa North 2.0mph /  3.2km/h 6.0mph /  9.7km/h 36% 0.00in /  0mm 554.0 W/m2
10:43 76.3 °F /  24.6 °C 47.3 °F /  8.5 °C 29.88in /  1011.7hPa NNW 2.9mph /  4.7km/h 9.0mph /  14.5km/h 36% 0.00in /  0mm 485.0 W/m2
10:48 75.9 °F /  24.4 °C 48.6 °F /  9.2 °C 29.88in /  1011.7hPa NW 0.9mph /  1.4km/h 8.0mph /  12.9km/h 38% 0.00in /  0mm 485.0 W/m2
10:53 75.9 °F /  24.4 °C 48.6 °F /  9.2 °C 29.88in /  1011.7hPa NW 6.9mph /  11.1km/h 9.0mph /  14.5km/h 38% 0.00in /  0mm 490.0 W/m2
10:58 75.9 °F /  24.4 °C 48.6 °F /  9.2 °C 29.88in /  1011.7hPa North 4.9mph /  7.9km/h 10.0mph /  16.1km/h 38% 0.00in /  0mm 642.0 W/m2
11:04 76.5 °F /  24.7 °C 48.9 °F /  9.4 °C 29.88in /  1011.7hPa WNW 4.0mph /  6.4km/h 12.0mph /  19.3km/h 38% 0.00in /  0mm 896.0 W/m2
11:09 76.8 °F /  24.9 °C 49.3 °F /  9.6 °C 29.88in /  1011.7hPa Calm   6.0mph /  9.7km/h 38% 0.00in /  0mm 733.0 W/m2
11:14 77.4 °F /  25.2 °C 49.1 °F /  9.5 °C 29.88in /  1011.7hPa NNW 2.9mph /  4.7km/h 8.0mph /  12.9km/h 37% 0.00in /  0mm 582.0 W/m2
11:20 77.4 °F /  25.2 °C 49.1 °F /  9.5 °C 29.87in /  1011.4hPa NNW 10.1mph /  16.3km/h 10.1mph /  16.3km/h 37% 0.00in /  0mm 728.0 W/m2
11:25 77.4 °F /  25.2 °C 50.5 °F /  10.3 °C 29.87in /  1011.4hPa NW 2.0mph /  3.2km/h 5.0mph /  8km/h 39% 0.00in /  0mm 960.0 W/m2
11:30 77.7 °F /  25.4 °C 50.0 °F /  10 °C 29.87in /  1011.4hPa WNW 2.0mph /  3.2km/h 6.0mph /  9.7km/h 38% 0.00in /  0mm 548.0 W/m2
11:35 77.7 °F /  25.4 °C 51.4 °F /  10.8 °C 29.87in /  1011.4hPa NNW 2.9mph /  4.7km/h 10.0mph /  16.1km/h 40% 0.00in /  0mm 480.0 W/m2
11:40 77.5 °F /  25.3 °C 51.3 °F /  10.7 °C 29.87in /  1011.4hPa NW 4.9mph /  7.9km/h 7.0mph /  11.3km/h 40% 0.00in /  0mm 459.0 W/m2
11:46 77.2 °F /  25.1 °C 51.1 °F /  10.6 °C 29.87in /  1011.4hPa NW 6.9mph /  11.1km/h 11.0mph /  17.7km/h 40% 0.00in /  0mm 522.0 W/m2
11:51 77.2 °F /  25.1 °C 51.1 °F /  10.6 °C 29.87in /  1011.4hPa NW 2.9mph /  4.7km/h 9.0mph /  14.5km/h 40% 0.00in /  0mm 559.0 W/m2
11:57 77.2 °F /  25.1 °C 51.1 °F /  10.6 °C 29.86in /  1011.1hPa NNE 8.9mph /  14.3km/h 12.0mph /  19.3km/h 40% 0.00in /  0mm 596.0 W/m2
12:02 76.8 °F /  24.9 °C 50.7 °F /  10.4 °C 29.86in /  1011.1hPa NE 4.9mph /  7.9km/h 8.0mph /  12.9km/h 40% 0.00in /  0mm 508.0 W/m2
12:07 76.6 °F /  24.8 °C 49.8 °F /  9.9 °C 29.86in /  1011.1hPa NNW 2.9mph /  4.7km/h 9.0mph /  14.5km/h 39% 0.00in /  0mm 584.0 W/m2
12:12 76.6 °F /  24.8 °C 49.8 °F /  9.9 °C 29.86in /  1011.1hPa Calm   8.0mph /  12.9km/h 39% 0.00in /  0mm 489.0 W/m2
12:17 76.8 °F /  24.9 °C 50.7 °F /  10.4 °C 29.85in /  1010.7hPa West 0.9mph /  1.4km/h 5.0mph /  8km/h 40% 0.00in /  0mm 668.0 W/m2
12:22 77.2 °F /  25.1 °C 51.1 °F /  10.6 °C 29.85in /  1010.7hPa WNW 4.9mph /  7.9km/h 5.0mph /  8km/h 40% 0.00in /  0mm 640.0 W/m2
12:27 77.2 °F /  25.1 °C 50.4 °F /  10.2 °C 29.85in /  1010.7hPa NNW 2.0mph /  3.2km/h 8.0mph /  12.9km/h 39% 0.00in /  0mm 503.0 W/m2
12:32 77.4 °F /  25.2 °C 49.8 °F /  9.9 °C 29.85in /  1010.7hPa NW 0.9mph /  1.4km/h 4.0mph /  6.4km/h 38% 0.00in /  0mm 394.0 W/m2
12:37 77.5 °F /  25.3 °C 49.3 °F /  9.6 °C 29.85in /  1010.7hPa WNW 4.0mph /  6.4km/h 10.0mph /  16.1km/h 37% 0.00in /  0mm 403.0 W/m2
12:43 77.7 °F /  25.4 °C 49.5 °F /  9.7 °C 29.85in /  1010.7hPa NNW 8.1mph /  13km/h 8.1mph /  13km/h 37% 0.00in /  0mm 445.0 W/m2
12:48 77.7 °F /  25.4 °C 49.5 °F /  9.7 °C 29.85in /  1010.7hPa WNW 2.9mph /  4.7km/h 7.0mph /  11.3km/h 37% 0.00in /  0mm 503.0 W/m2
12:54 77.7 °F /  25.4 °C 49.5 °F /  9.7 °C 29.85in /  1010.7hPa West 0.9mph /  1.4km/h 8.0mph /  12.9km/h 37% 0.00in /  0mm 315.0 W/m2
12:59 77.5 °F /  25.3 °C 49.3 °F /  9.6 °C 29.85in /  1010.7hPa NNW 2.0mph /  3.2km/h 2.0mph /  3.2km/h 37% 0.00in /  0mm 269.0 W/m2
13:04 77.5 °F /  25.3 °C 49.3 °F /  9.6 °C 29.85in /  1010.7hPa North 6.0mph /  9.7km/h 8.0mph /  12.9km/h 37% 0.00in /  0mm 292.0 W/m2
13:14 77.2 °F /  25.1 °C 48.9 °F /  9.4 °C 29.85in /  1010.7hPa WNW 2.9mph /  4.7km/h 10.0mph /  16.1km/h 37% 0.00in /  0mm 316.0 W/m2
13:19 77.2 °F /  25.1 °C 50.4 °F /  10.2 °C 29.84in /  1010.4hPa North 6.0mph /  9.7km/h 6.0mph /  9.7km/h 39% 0.00in /  0mm 359.0 W/m2
13:24 77.2 °F /  25.1 °C 51.1 °F /  10.6 °C 29.84in /  1010.4hPa WNW 0.9mph /  1.4km/h 4.0mph /  6.4km/h 40% 0.00in /  0mm 383.0 W/m2
13:30 77.4 °F /  25.2 °C 51.8 °F /  11 °C 29.84in /  1010.4hPa NNW 6.0mph /  9.7km/h 6.0mph /  9.7km/h 41% 0.00in /  0mm 443.0 W/m2
13:35 77.4 °F /  25.2 °C 51.1 °F /  10.6 °C 29.83in /  1010hPa NNW 6.9mph /  11.1km/h 7.0mph /  11.3km/h 40% 0.00in /  0mm 396.0 W/m2
13:40 77.4 °F /  25.2 °C 51.1 °F /  10.6 °C 29.83in /  1010hPa Calm   10.0mph /  16.1km/h 40% 0.00in /  0mm 366.0 W/m2
13:45 77.4 °F /  25.2 °C 50.5 °F /  10.3 °C 29.83in /  1010hPa NNW 8.9mph /  14.3km/h 10.0mph /  16.1km/h 39% 0.00in /  0mm 330.0 W/m2
13:51 77.2 °F /  25.1 °C 51.6 °F /  10.9 °C 29.83in /  1010hPa NNW 6.0mph /  9.7km/h 9.0mph /  14.5km/h 41% 0.00in /  0mm 339.0 W/m2
13:56 77.2 °F /  25.1 °C 51.6 °F /  10.9 °C 29.83in /  1010hPa North 6.9mph /  11.1km/h 8.0mph /  12.9km/h 41% 0.00in /  0mm 311.0 W/m2
14:07 77.0 °F /  25 °C 51.4 °F /  10.8 °C 29.83in /  1010hPa WNW 0.9mph /  1.4km/h 8.0mph /  12.9km/h 41% 0.00in /  0mm 315.0 W/m2
14:12 76.8 °F /  24.9 °C 50.7 °F /  10.4 °C 29.82in /  1009.7hPa NNW 2.0mph /  3.2km/h 8.0mph /  12.9km/h 40% 0.00in /  0mm 295.0 W/m2
14:17 76.8 °F /  24.9 °C 50.7 °F /  10.4 °C 29.82in /  1009.7hPa North 0.9mph /  1.4km/h 8.0mph /  12.9km/h 40% 0.00in /  0mm 390.0 W/m2
14:23 77.2 °F /  25.1 °C 51.6 °F /  10.9 °C 29.82in /  1009.7hPa NNW 2.0mph /  3.2km/h 4.0mph /  6.4km/h 41% 0.00in /  0mm 439.0 W/m2
14:28 77.4 °F /  25.2 °C 50.5 °F /  10.3 °C 29.82in /  1009.7hPa North 6.0mph /  9.7km/h 10.0mph /  16.1km/h 39% 0.00in /  0mm 285.0 W/m2
14:33 77.4 °F /  25.2 °C 51.1 °F /  10.6 °C 29.82in /  1009.7hPa WNW 0.9mph /  1.4km/h 2.0mph /  3.2km/h 40% 0.00in /  0mm 315.0 W/m2
14:38 77.4 °F /  25.2 °C 49.8 °F /  9.9 °C 29.82in /  1009.7hPa West 2.9mph /  4.7km/h 9.0mph /  14.5km/h 38% 0.00in /  0mm 357.0 W/m2
14:43 77.2 °F /  25.1 °C 50.4 °F /  10.2 °C 29.81in /  1009.4hPa WNW 2.9mph /  4.7km/h 3.0mph /  4.8km/h 39% 0.00in /  0mm 346.0 W/m2
14:48 77.2 °F /  25.1 °C 49.6 °F /  9.8 °C 29.81in /  1009.4hPa North 2.0mph /  3.2km/h 9.0mph /  14.5km/h 38% 0.00in /  0mm 274.0 W/m2
14:53 77.2 °F /  25.1 °C 49.6 °F /  9.8 °C 29.81in /  1009.4hPa NNW 8.1mph /  13km/h 8.1mph /  13km/h 38% 0.00in /  0mm 250.0 W/m2
14:58 77.2 °F /  25.1 °C 48.9 °F /  9.4 °C 29.81in /  1009.4hPa NW 2.0mph /  3.2km/h 9.0mph /  14.5km/h 37% 0.00in /  0mm 248.0 W/m2
15:04 76.8 °F /  24.9 °C 49.3 °F /  9.6 °C 29.81in /  1009.4hPa NNW 2.0mph /  3.2km/h 8.0mph /  12.9km/h 38% 0.00in /  0mm 229.0 W/m2
15:09 76.8 °F /  24.9 °C 48.6 °F /  9.2 °C 29.81in /  1009.4hPa NW 2.9mph /  4.7km/h 7.0mph /  11.3km/h 37% 0.00in /  0mm 207.0 W/m2
15:14 76.6 °F /  24.8 °C 48.4 °F /  9.1 °C 29.81in /  1009.4hPa NNW 4.0mph /  6.4km/h 9.0mph /  14.5km/h 37% 0.00in /  0mm 192.0 W/m2
15:19 76.5 °F /  24.7 °C 48.9 °F /  9.4 °C 29.80in /  1009hPa NNW 6.0mph /  9.7km/h 7.0mph /  11.3km/h 38% 0.00in /  0mm 174.0 W/m2
15:24 76.3 °F /  24.6 °C 49.5 °F /  9.7 °C 29.80in /  1009hPa Calm   6.0mph /  9.7km/h 39% 0.00in /  0mm 158.0 W/m2
15:29 76.1 °F /  24.5 °C 48.6 °F /  9.2 °C 29.80in /  1009hPa NNE 8.9mph /  14.3km/h 10.0mph /  16.1km/h 38% 0.00in /  0mm 165.0 W/m2
15:34 75.9 °F /  24.4 °C 48.6 °F /  9.2 °C 29.80in /  1009hPa NNW 4.0mph /  6.4km/h 8.0mph /  12.9km/h 38% 0.00in /  0mm 160.0 W/m2
15:39 75.9 °F /  24.4 °C 49.1 °F /  9.5 °C 29.80in /  1009hPa NNE 2.0mph /  3.2km/h 11.0mph /  17.7km/h 39% 0.00in /  0mm 204.0 W/m2
15:41 75.9 °F /  24.4 °C 49.1 °F /  9.5 °C 29.80in /  1009hPa North 6.9mph /  11.1km/h 7.0mph /  11.3km/h 39% 0.00in /  0mm 229.0 W/m2
15:45 75.9 °F /  24.4 °C 49.8 °F /  9.9 °C 29.80in /  1009hPa NNW 4.0mph /  6.4km/h 7.0mph /  11.3km/h 40% 0.00in /  0mm 250.0 W/m2
15:50 76.3 °F /  24.6 °C 49.5 °F /  9.7 °C 29.80in /  1009hPa NNW 2.9mph /  4.7km/h 6.0mph /  9.7km/h 39% 0.00in /  0mm 378.0 W/m2
15:55 76.8 °F /  24.9 °C 50.7 °F /  10.4 °C 29.80in /  1009hPa Calm   4.0mph /  6.4km/h 40% 0.00in /  0mm 179.0 W/m2
16:00 76.8 °F /  24.9 °C 50.7 °F /  10.4 °C 29.80in /  1009hPa NNW 8.1mph /  13km/h 8.1mph /  13km/h 40% 0.00in /  0mm 206.0 W/m2
16:05 76.6 °F /  24.8 °C 49.8 °F /  9.9 °C 29.80in /  1009hPa NNW 4.0mph /  6.4km/h 8.0mph /  12.9km/h 39% 0.00in /  0mm 243.0 W/m2
16:10 76.5 °F /  24.7 °C 49.6 °F /  9.8 °C 29.80in /  1009hPa NNW 2.0mph /  3.2km/h 7.0mph /  11.3km/h 39% 0.00in /  0mm 264.0 W/m2
16:15 76.5 °F /  24.7 °C 49.6 °F /  9.8 °C 29.80in /  1009hPa NNE 6.9mph /  11.1km/h 10.0mph /  16.1km/h 39% 0.00in /  0mm 271.0 W/m2
16:21 76.5 °F /  24.7 °C 49.6 °F /  9.8 °C 29.79in /  1008.7hPa NNE 4.0mph /  6.4km/h 9.0mph /  14.5km/h 39% 0.00in /  0mm 221.0 W/m2
16:26 76.5 °F /  24.7 °C 49.6 °F /  9.8 °C 29.79in /  1008.7hPa North 4.0mph /  6.4km/h 8.0mph /  12.9km/h 39% 0.00in /  0mm 285.0 W/m2
16:31 76.6 °F /  24.8 °C 49.1 °F /  9.5 °C 29.79in /  1008.7hPa NNW 4.0mph /  6.4km/h 9.0mph /  14.5km/h 38% 0.00in /  0mm 276.0 W/m2
16:37 77.2 °F /  25.1 °C 49.6 °F /  9.8 °C 29.79in /  1008.7hPa WNW 2.9mph /  4.7km/h 4.0mph /  6.4km/h 38% 0.00in /  0mm 494.0 W/m2
16:42 77.9 °F /  25.5 °C 50.2 °F /  10.1 °C 29.79in /  1008.7hPa WNW 6.9mph /  11.1km/h 7.0mph /  11.3km/h 38% 0.00in /  0mm 425.0 W/m2
16:47 78.1 °F /  25.6 °C 50.4 °F /  10.2 °C 29.78in /  1008.4hPa WNW 2.9mph /  4.7km/h 8.0mph /  12.9km/h 38% 0.00in /  0mm 206.0 W/m2
16:52 77.9 °F /  25.5 °C 50.2 °F /  10.1 °C 29.78in /  1008.4hPa West 0.9mph /  1.4km/h 3.0mph /  4.8km/h 38% 0.00in /  0mm 185.0 W/m2
16:57 77.7 °F /  25.4 °C 50.0 °F /  10 °C 29.78in /  1008.4hPa NE 4.0mph /  6.4km/h 6.0mph /  9.7km/h 38% 0.00in /  0mm 306.0 W/m2
17:02 77.5 °F /  25.3 °C 50.0 °F /  10 °C 29.78in /  1008.4hPa NW 0.9mph /  1.4km/h 8.0mph /  12.9km/h 38% 0.00in /  0mm 102.0 W/m2
17:08 77.4 °F /  25.2 °C 51.1 °F /  10.6 °C 29.78in /  1008.4hPa NW 2.9mph /  4.7km/h 7.0mph /  11.3km/h 40% 0.00in /  0mm 111.0 W/m2
17:13 77.2 °F /  25.1 °C 51.6 °F /  10.9 °C 29.79in /  1008.7hPa Calm   6.0mph /  9.7km/h 41% 0.00in /  0mm 128.0 W/m2
17:18 77.0 °F /  25 °C 52.9 °F /  11.6 °C 29.79in /  1008.7hPa Calm   8.0mph /  12.9km/h 43% 0.00in /  0mm 462.0 W/m2
17:23 77.5 °F /  25.3 °C 52.0 °F /  11.1 °C 29.79in /  1008.7hPa NE 2.0mph /  3.2km/h 9.0mph /  14.5km/h 41% 0.00in /  0mm 367.0 W/m2
17:28 77.7 °F /  25.4 °C 50.0 °F /  10 °C 29.79in /  1008.7hPa NE 2.9mph /  4.7km/h 10.0mph /  16.1km/h 38% 0.00in /  0mm 197.0 W/m2
17:33 77.4 °F /  25.2 °C 50.5 °F /  10.3 °C 29.79in /  1008.7hPa NNW 4.0mph /  6.4km/h 9.0mph /  14.5km/h 39% 0.00in /  0mm 107.0 W/m2
17:38 76.8 °F /  24.9 °C 51.3 °F /  10.7 °C 29.80in /  1009hPa NW 2.9mph /  4.7km/h 6.0mph /  9.7km/h 41% 0.00in /  0mm 142.0 W/m2
17:43 76.5 °F /  24.7 °C 51.1 °F /  10.6 °C 29.80in /  1009hPa NW 0.9mph /  1.4km/h 11.0mph /  17.7km/h 41% 0.00in /  0mm 91.0 W/m2
17:49 75.7 °F /  24.3 °C 52.9 °F /  11.6 °C 29.81in /  1009.4hPa North 6.9mph /  11.1km/h 27.0mph /  43.5km/h 45% 0.00in /  0mm 39.0 W/m2
17:54 73.8 °F /  23.2 °C 52.9 °F /  11.6 °C 29.82in /  1009.7hPa NNE 8.1mph /  13km/h 20.0mph /  32.2km/h 48% 0.00in /  0mm 63.0 W/m2
17:59 72.0 °F /  22.2 °C 54.0 °F /  12.2 °C 29.83in /  1010hPa WNW 11.0mph /  17.7km/h 16.0mph /  25.7km/h 53% 0.00in /  0mm 84.0 W/m2
18:04 70.3 °F /  21.3 °C 54.3 °F /  12.4 °C 29.83in /  1010hPa North 4.9mph /  7.9km/h 17.0mph /  27.4km/h 57% 0.00in /  0mm 76.0 W/m2
18:09 69.4 °F /  20.8 °C 54.9 °F /  12.7 °C 29.83in /  1010hPa NNW 6.0mph /  9.7km/h 16.0mph /  25.7km/h 60% 0.00in /  0mm 70.0 W/m2
18:15 68.4 °F /  20.2 °C 55.2 °F /  12.9 °C 29.83in /  1010hPa North 11.0mph /  17.7km/h 18.0mph /  29km/h 63% 0.00in /  0mm 54.0 W/m2
18:20 67.8 °F /  19.9 °C 56.1 °F /  13.4 °C 29.84in /  1010.4hPa West 11.0mph /  17.7km/h 12.0mph /  19.3km/h 66% 0.00in /  0mm 49.0 W/m2
18:25 67.3 °F /  19.6 °C 55.9 °F /  13.3 °C 29.84in /  1010.4hPa NNW 6.0mph /  9.7km/h 13.0mph /  20.9km/h 67% 0.00in /  0mm 35.0 W/m2
18:31 66.4 °F /  19.1 °C 55.9 °F /  13.3 °C 29.85in /  1010.7hPa NNW 11.0mph /  17.7km/h 15.0mph /  24.1km/h 69% 0.00in /  0mm 19.0 W/m2
18:36 65.7 °F /  18.7 °C 56.8 °F /  13.8 °C 29.85in /  1010.7hPa NNW 6.0mph /  9.7km/h 10.0mph /  16.1km/h 73% 0.00in /  0mm 12.0 W/m2
18:41 64.9 °F /  18.3 °C 56.5 °F /  13.6 °C 29.85in /  1010.7hPa NNW 2.9mph /  4.7km/h 8.0mph /  12.9km/h 74% 0.00in /  0mm 11.0 W/m2
18:47 64.6 °F /  18.1 °C 57.6 °F /  14.2 °C 29.86in /  1011.1hPa NNE 2.0mph /  3.2km/h 5.0mph /  8km/h 78% 0.02in /  0.51mm 9.0 W/m2
18:52 63.9 °F /  17.7 °C 57.6 °F /  14.2 °C 29.85in /  1010.7hPa North 2.0mph /  3.2km/h 6.0mph /  9.7km/h 80% 0.02in /  0.51mm 7.0 W/m2
18:57 63.1 °F /  17.3 °C 56.8 °F /  13.8 °C 29.85in /  1010.7hPa Calm     80% 0.03in /  0.76mm 0.0 W/m2
19:03 62.8 °F /  17.1 °C 57.2 °F /  14 °C 29.85in /  1010.7hPa Calm     82% 0.03in /  0.76mm 0.0 W/m2
19:08 62.4 °F /  16.9 °C 57.6 °F /  14.2 °C 29.85in /  1010.7hPa South 0.9mph /  1.4km/h 2.0mph /  3.2km/h 84% 0.03in /  0.76mm 0.0 W/m2
19:13 62.1 °F /  16.7 °C 56.8 °F /  13.8 °C 29.84in /  1010.4hPa Calm   1.0mph /  1.6km/h 83% 0.03in /  0.76mm 0.0 W/m2
19:19 61.9 °F /  16.6 °C 57.4 °F /  14.1 °C 29.84in /  1010.4hPa SE 2.9mph /  4.7km/h 6.0mph /  9.7km/h 85% 0.04in /  1.02mm 0.0 W/m2
19:24 61.7 °F /  16.5 °C 57.2 °F /  14 °C 29.84in /  1010.4hPa SSE 4.0mph /  6.4km/h 6.0mph /  9.7km/h 85% 0.04in /  1.02mm 0.0 W/m2
19:29 61.5 °F /  16.4 °C 57.4 °F /  14.1 °C 29.83in /  1010hPa SSE 0.9mph /  1.4km/h 4.0mph /  6.4km/h 86% 0.04in /  1.02mm 0.0 W/m2
19:34 61.5 °F /  16.4 °C 57.4 °F /  14.1 °C 29.83in /  1010hPa East 0.9mph /  1.4km/h 2.0mph /  3.2km/h 86% 0.04in /  1.02mm 0.0 W/m2
19:39 61.3 °F /  16.3 °C 57.2 °F /  14 °C 29.83in /  1010hPa Calm   2.0mph /  3.2km/h 86% 0.04in /  1.02mm 0.0 W/m2
19:50 61.2 °F /  16.2 °C 57.2 °F /  14 °C 29.83in /  1010hPa East 2.9mph /  4.7km/h 3.0mph /  4.8km/h 87% 0.02in /  0.51mm 0.0 W/m2
19:55 61.0 °F /  16.1 °C 57.0 °F /  13.9 °C 29.83in /  1010hPa Calm   2.0mph /  3.2km/h 87% 0.01in /  0.25mm 0.0 W/m2
20:01 61.0 °F /  16.1 °C 57.0 °F /  13.9 °C 29.83in /  1010hPa ENE 2.0mph /  3.2km/h 2.0mph /  3.2km/h 87% 0.01in /  0.25mm 0.0 W/m2
20:06 60.8 °F /  16 °C 56.8 °F /  13.8 °C 29.83in /  1010hPa Calm   4.0mph /  6.4km/h 87% 0.01in /  0.25mm 0.0 W/m2
20:13 60.6 °F /  15.9 °C 56.7 °F /  13.7 °C 29.83in /  1010hPa East 0.9mph /  1.4km/h 4.0mph /  6.4km/h 87% 0.00in /  0mm 0.0 W/m2
20:27 60.6 °F /  15.9 °C 56.7 °F /  13.7 °C 29.84in /  1010.4hPa Calm   3.0mph /  4.8km/h 87% 0.00in /  0mm 0.0 W/m2
20:32 60.6 °F /  15.9 °C 56.7 °F /  13.7 °C 29.85in /  1010.7hPa Calm   2.0mph /  3.2km/h 87% 0.00in /  0mm 0.0 W/m2
20:37 60.6 °F /  15.9 °C 56.7 °F /  13.7 °C 29.84in /  1010.4hPa Calm   1.0mph /  1.6km/h 87% 0.00in /  0mm 0.0 W/m2
20:43 60.4 °F /  15.8 °C 56.5 °F /  13.6 °C 29.84in /  1010.4hPa Calm   1.0mph /  1.6km/h 87% 0.00in /  0mm 0.0 W/m2
20:48 60.4 °F /  15.8 °C 56.5 °F /  13.6 °C 29.84in /  1010.4hPa Calm   1.0mph /  1.6km/h 87% 0.00in /  0mm 0.0 W/m2
20:53 60.4 °F /  15.8 °C 56.5 °F /  13.6 °C 29.84in /  1010.4hPa Calm     87% 0.00in /  0mm 0.0 W/m2
20:59 60.3 °F /  15.7 °C 56.3 °F /  13.5 °C 29.85in /  1010.7hPa Calm     87% 0.00in /  0mm 0.0 W/m2
21:04 60.3 °F /  15.7 °C 56.3 °F /  13.5 °C 29.85in /  1010.7hPa Calm     87% 0.00in /  0mm 0.0 W/m2
21:09 60.3 °F /  15.7 °C 56.3 °F /  13.5 °C 29.85in /  1010.7hPa Calm     87% 0.00in /  0mm 0.0 W/m2
21:15 60.1 °F /  15.6 °C 56.1 °F /  13.4 °C 29.85in /  1010.7hPa Calm     87% 0.00in /  0mm 0.0 W/m2
21:20 60.1 °F /  15.6 °C 56.5 °F /  13.6 °C 29.85in /  1010.7hPa Calm     88% 0.00in /  0mm 0.0 W/m2
21:25 60.1 °F /  15.6 °C 56.5 °F /  13.6 °C 29.85in /  1010.7hPa Calm     88% 0.00in /  0mm 0.0 W/m2
21:31 60.1 °F /  15.6 °C 56.8 °F /  13.8 °C 29.85in /  1010.7hPa SSE 0.9mph /  1.4km/h 1.0mph /  1.6km/h 89% 0.00in /  0mm 0.0 W/m2
21:36 60.1 °F /  15.6 °C 56.8 °F /  13.8 °C 29.85in /  1010.7hPa Calm     89% 0.00in /  0mm 0.0 W/m2
21:41 59.9 °F /  15.5 °C 56.3 °F /  13.5 °C 29.85in /  1010.7hPa Calm     88% 0.00in /  0mm 0.0 W/m2
21:46 59.9 °F /  15.5 °C 56.3 °F /  13.5 °C 29.85in /  1010.7hPa Calm     88% 0.00in /  0mm 0.0 W/m2
21:51 59.7 °F /  15.4 °C 56.1 °F /  13.4 °C 29.85in /  1010.7hPa Calm   1.0mph /  1.6km/h 88% 0.00in /  0mm 0.0 W/m2
21:57 59.7 °F /  15.4 °C 56.1 °F /  13.4 °C 29.86in /  1011.1hPa Calm     88% 0.00in /  0mm 0.0 W/m2
22:02 59.7 °F /  15.4 °C 56.1 °F /  13.4 °C 29.85in /  1010.7hPa SSE 2.0mph /  3.2km/h 3.0mph /  4.8km/h 88% 0.00in /  0mm 0.0 W/m2
22:07 59.7 °F /  15.4 °C 55.8 °F /  13.2 °C 29.85in /  1010.7hPa Calm   1.0mph /  1.6km/h 87% 0.00in /  0mm 0.0 W/m2
22:12 59.5 °F /  15.3 °C 55.6 °F /  13.1 °C 29.85in /  1010.7hPa Calm   1.0mph /  1.6km/h 87% 0.00in /  0mm 0.0 W/m2
22:17 59.5 °F /  15.3 °C 55.6 °F /  13.1 °C 29.85in /  1010.7hPa Calm   4.0mph /  6.4km/h 87% 0.00in /  0mm 0.0 W/m2
22:23 59.7 °F /  15.4 °C 55.8 °F /  13.2 °C 29.85in /  1010.7hPa Calm   3.0mph /  4.8km/h 87% 0.00in /  0mm 0.0 W/m2
22:29 59.7 °F /  15.4 °C 55.6 °F /  13.1 °C 29.85in /  1010.7hPa ESE 2.0mph /  3.2km/h 3.0mph /  4.8km/h 86% 0.00in /  0mm 0.0 W/m2
22:34 59.9 °F /  15.5 °C 55.8 °F /  13.2 °C 29.86in /  1011.1hPa Calm     86% 0.00in /  0mm 0.0 W/m2
22:39 59.9 °F /  15.5 °C 55.4 °F /  13 °C 29.86in /  1011.1hPa Calm     85% 0.00in /  0mm 0.0 W/m2
22:45 60.1 °F /  15.6 °C 56.1 °F /  13.4 °C 29.86in /  1011.1hPa Calm     87% 0.00in /  0mm 0.0 W/m2
22:50 60.1 °F /  15.6 °C 56.1 °F /  13.4 °C 29.86in /  1011.1hPa Calm     87% 0.00in /  0mm 0.0 W/m2
22:55 60.1 °F /  15.6 °C 56.1 °F /  13.4 °C 29.86in /  1011.1hPa Calm   1.0mph /  1.6km/h 87% 0.00in /  0mm 0.0 W/m2
23:00 60.3 °F /  15.7 °C 56.3 °F /  13.5 °C 29.87in /  1011.4hPa Calm     87% 0.00in /  0mm 0.0 W/m2
23:05 60.1 °F /  15.6 °C 55.9 °F /  13.3 °C 29.87in /  1011.4hPa Calm     86% 0.00in /  0mm 0.0 W/m2
23:10 60.3 °F /  15.7 °C 56.3 °F /  13.5 °C 29.87in /  1011.4hPa Calm     87% 0.00in /  0mm 0.0 W/m2
23:15 60.3 °F /  15.7 °C 56.1 °F /  13.4 °C 29.87in /  1011.4hPa Calm   2.0mph /  3.2km/h 86% 0.00in /  0mm 0.0 W/m2
23:20 60.3 °F /  15.7 °C 56.3 °F /  13.5 °C 29.88in /  1011.7hPa Calm   1.0mph /  1.6km/h 87% 0.00in /  0mm 0.0 W/m2
23:25 60.3 °F /  15.7 °C 56.3 °F /  13.5 °C 29.88in /  1011.7hPa ENE 0.9mph /  1.4km/h 3.0mph /  4.8km/h 87% 0.00in /  0mm 0.0 W/m2
23:31 60.3 °F /  15.7 °C 56.1 °F /  13.4 °C 29.88in /  1011.7hPa Calm   3.0mph /  4.8km/h 86% 0.00in /  0mm 0.0 W/m2
23:36 60.4 °F /  15.8 °C 56.3 °F /  13.5 °C 29.88in /  1011.7hPa NE 0.9mph /  1.4km/h 2.0mph /  3.2km/h 86% 0.00in /  0mm 0.0 W/m2
23:41 60.4 °F /  15.8 °C 56.3 °F /  13.5 °C 29.88in /  1011.7hPa Calm   2.0mph /  3.2km/h 86% 0.00in /  0mm 0.0 W/m2
23:46 60.4 °F /  15.8 °C 56.5 °F /  13.6 °C 29.88in /  1011.7hPa Calm   2.0mph /  3.2km/h 87% 0.00in /  0mm 0.0 W/m2
23:51 60.4 °F /  15.8 °C 56.5 °F /  13.6 °C 29.88in /  1011.7hPa ENE 0.9mph /  1.4km/h 2.0mph /  3.2km/h 87% 0.00in /  0mm 0.0 W/m2
23:57 60.4 °F /  15.8 °C 56.5 °F /  13.6 °C 29.87in /  1011.4hPa Calm   2.0mph /  3.2km/h 87% 0.00in /  0mm 0.0 W/m2
Olympia, Windhoek, Namibia
Compliments of Weather Underground - 3.25 mb